This is the latest recevied weather packets stored in our database for station/object KC9ZAR-13. If no packets are shown the sender has not sent any weather packets the latest 10 day(s).
| Time | Temp. | Humidity | Pressure | Rain* | Wind** | Luminosity | Snow |
|---|---|---|---|---|---|---|---|
| 1778169005 | 15° C | 44% | 1015.1 hPa | 0 mm | - | 0 W/m² | - |
| 1778166005 | 14.44° C | 47% | 1015.3 hPa | 0 mm | - | 0 W/m² | - |
| 1778165705 | 13.89° C | 47% | 1015.3 hPa | 0 mm | - | 0 W/m² | - |
| 1778159705 | 12.22° C | 63% | 1015 hPa | 0 mm | - | 0 W/m² | - |
| 1778156405 | 7.78° C | 93% | 1014.8 hPa | 0 mm | - | 0 W/m² | - |
| 1778156105 | 7.78° C | 94% | 1014.9 hPa | 0 mm | - | 0 W/m² | - |
| 1778154906 | 6.11° C | 95% | 1014.7 hPa | 0 mm | - | 0 W/m² | - |
| 1778154604 | 5.56° C | 95% | 1014.6 hPa | 0 mm | - | 0 W/m² | - |
| 1778151605 | 3.89° C | 94% | 1014.4 hPa | 0 mm | - | 0 W/m² | - |
| 1778151004 | 3.89° C | 93% | 1014.5 hPa | 0 mm | - | 0 W/m² | - |
| 1778150105 | 3.89° C | 93% | 1014.5 hPa | 0 mm | - | 0 W/m² | - |
| 1778147104 | 4.44° C | 93% | 1014.5 hPa | 0 mm | - | 0 W/m² | - |
| 1778145005 | 5° C | 93% | 1014.3 hPa | 0 mm | - | 0 W/m² | - |
| 1778143805 | 5° C | 93% | 1014.4 hPa | 0 mm | - | 0 W/m² | - |
| 1778141405 | 5.56° C | 93% | 1014.1 hPa | 0 mm | - | 0 W/m² | - |
| 1778135705 | 6.67° C | 93% | 1014 hPa | 0 mm | - | 0 W/m² | - |
| 1778133905 | 7.22° C | 93% | 1014.1 hPa | 0 mm | - | 0 W/m² | - |
| 1778131205 | 7.78° C | 92% | 1013.9 hPa | 0 mm | - | 0 W/m² | - |
| 1778130604 | 7.78° C | 92% | 1013.9 hPa | 0 mm | - | 0 W/m² | - |
| 1778125505 | 8.33° C | 90% | 1014 hPa | 0 mm | - | 0 W/m² | - |
| 1778120704 | 10° C | 85% | 1013.6 hPa | 0 mm | - | 0 W/m² | - |
| 1778118305 | 11.11° C | 78% | 1013 hPa | 0 mm | - | 0 W/m² | - |
| 1778118006 | 11.67° C | 77% | 1013 hPa | 0 mm | - | 0 W/m² | - |
| 1778117106 | 12.22° C | 73% | 1012.9 hPa | 0 mm | - | 0 W/m² | - |
| 1778116506 | 12.78° C | 71% | 1012.7 hPa | 0 mm | - | 0 W/m² | - |
* Rain latest hour (hover to see other rain measurements)
** Current wind speed in m/s (hover to see current wind gust speed)